Eerbeek, Netherlands
Current Conditions -  °F | °C
As of 12:55 AM on Wednesday 26 Nov 2014 (Local Time) from EHDL Reporting Station
Haze Haze  
Wind Chill: 34°   Ceiling: Unl
Heat Index: 39°   Visibility: 4mi
Dew Point: 37°   Wind: 8mph
Humidity: 93%   Direction: 90°E
Pressure: 30.12"   Gusts: NA
Location:  52.11°N, 6.06°E
Report Text: EHDL 252355Z AUTO 09007KT 6000 BR FEW091 04/03 Q1020 WHT
Loading
Personal Weather Stations






























Interactive Weather Map New forecast layout! Learn more

10-Day Weather Forecast

Advertisements
Track Severe Weather on mobile